sensor_id;sensor_type;location;lat;lon;timestamp;pressure;altitude;pressure_sealevel;temperature;humidity
29163;BME280;20331;53.144;8.208;2023-09-30T00:04:39;102323.72;;;14.03;96.78
29163;BME280;20331;53.144;8.208;2023-09-30T00:10:01;102315.09;;;14.01;97.18
29163;BME280;20331;53.144;8.208;2023-09-30T00:15:26;102313.47;;;13.97;97.28
29163;BME280;20331;53.144;8.208;2023-09-30T00:20:48;102322.25;;;13.90;97.34
29163;BME280;20331;53.144;8.208;2023-09-30T00:26:10;102325.69;;;13.92;96.96
29163;BME280;20331;53.144;8.208;2023-09-30T00:31:32;102325.81;;;13.86;97.66
29163;BME280;20331;53.144;8.208;2023-09-30T00:36:54;102320.63;;;13.86;97.55
29163;BME280;20331;53.144;8.208;2023-09-30T00:42:15;102330.16;;;13.85;97.61
29163;BME280;20331;53.144;8.208;2023-09-30T00:47:37;102337.25;;;13.79;97.62
29163;BME280;20331;53.144;8.208;2023-09-30T00:52:59;102337.25;;;13.77;98.37
29163;BME280;20331;53.144;8.208;2023-09-30T00:58:21;102331.22;;;13.77;97.46
29163;BME280;20331;53.144;8.208;2023-09-30T01:03:48;102346.94;;;13.71;97.27
29163;BME280;20331;53.144;8.208;2023-09-30T01:09:10;102341.69;;;13.72;97.71
29163;BME280;20331;53.144;8.208;2023-09-30T01:14:33;102322.56;;;13.75;97.66
29163;BME280;20331;53.144;8.208;2023-09-30T01:20:00;102337.25;;;13.77;97.79
29163;BME280;20331;53.144;8.208;2023-09-30T01:25:21;102327.78;;;13.75;97.65
29163;BME280;20331;53.144;8.208;2023-09-30T01:30:43;102318.25;;;13.74;97.64
29163;BME280;20331;53.144;8.208;2023-09-30T01:36:05;102331.13;;;13.80;97.48
29163;BME280;20331;53.144;8.208;2023-09-30T01:41:26;102340.69;;;13.79;96.79
29163;BME280;20331;53.144;8.208;2023-09-30T01:46:48;102339.84;;;13.79;97.39
29163;BME280;20331;53.144;8.208;2023-09-30T01:52:09;102354.63;;;13.77;97.40
29163;BME280;20331;53.144;8.208;2023-09-30T01:57:31;102356.44;;;13.73;97.46
29163;BME280;20331;53.144;8.208;2023-09-30T02:02:56;102363.41;;;13.71;96.92
29163;BME280;20331;53.144;8.208;2023-09-30T02:08:18;102360.88;;;13.67;97.20
29163;BME280;20331;53.144;8.208;2023-09-30T02:13:41;102372.34;;;13.57;97.43
29163;BME280;20331;53.144;8.208;2023-09-30T02:19:04;102378.47;;;13.53;97.29
29163;BME280;20331;53.144;8.208;2023-09-30T02:24:25;102374.16;;;13.50;96.93
29163;BME280;20331;53.144;8.208;2023-09-30T02:29:47;102374.19;;;13.49;97.21
29163;BME280;20331;53.144;8.208;2023-09-30T02:35:09;102369.16;;;13.40;97.21
29163;BME280;20331;53.144;8.208;2023-09-30T02:40:33;102376.19;;;13.35;98.19
29163;BME280;20331;53.144;8.208;2023-09-30T02:45:55;102376.19;;;13.35;97.39
29163;BME280;20331;53.144;8.208;2023-09-30T02:51:17;102378.84;;;13.30;97.57
29163;BME280;20331;53.144;8.208;2023-09-30T02:56:38;102378.97;;;13.23;97.97
29163;BME280;20331;53.144;8.208;2023-09-30T03:02:00;102385.94;;;13.21;98.48
29163;BME280;20331;53.144;8.208;2023-09-30T03:07:22;102389.38;;;13.23;98.63
29163;BME280;20331;53.144;8.208;2023-09-30T03:12:44;102383.28;;;13.24;98.12
29163;BME280;20331;53.144;8.208;2023-09-30T03:18:06;102382.50;;;13.19;98.49
29163;BME280;20331;53.144;8.208;2023-09-30T03:23:28;102379.03;;;13.20;98.69
29163;BME280;20331;53.144;8.208;2023-09-30T03:28:52;102387.69;;;13.19;98.61
29163;BME280;20331;53.144;8.208;2023-09-30T03:34:15;102385.13;;;13.17;98.00
29163;BME280;20331;53.144;8.208;2023-09-30T03:39:37;102388.63;;;13.16;98.79
29163;BME280;20331;53.144;8.208;2023-09-30T03:44:59;102392.94;;;13.16;99.07
29163;BME280;20331;53.144;8.208;2023-09-30T03:50:21;102390.34;;;13.16;99.21
29163;BME280;20331;53.144;8.208;2023-09-30T03:55:45;102386.78;;;13.21;99.61
29163;BME280;20331;53.144;8.208;2023-09-30T04:01:07;102389.47;;;13.17;99.48
29163;BME280;20331;53.144;8.208;2023-09-30T04:06:29;102387.72;;;13.17;99.25
29163;BME280;20331;53.144;8.208;2023-09-30T04:11:51;102386.03;;;13.15;99.52
29163;BME280;20331;53.144;8.208;2023-09-30T04:17:12;102393.78;;;13.18;99.51
29163;BME280;20331;53.144;8.208;2023-09-30T04:22:34;102395.50;;;13.20;99.21
29163;BME280;20331;53.144;8.208;2023-09-30T04:27:57;102396.38;;;13.18;100.00
29163;BME280;20331;53.144;8.208;2023-09-30T04:33:18;102400.69;;;13.20;99.55
29163;BME280;20331;53.144;8.208;2023-09-30T04:38:41;102399.81;;;13.20;99.53
29163;BME280;20331;53.144;8.208;2023-09-30T04:44:04;102406.72;;;13.21;99.85
29163;BME280;20331;53.144;8.208;2023-09-30T04:49:26;102403.28;;;13.19;99.91
29163;BME280;20331;53.144;8.208;2023-09-30T04:54:48;102403.28;;;13.19;100.00
29163;BME280;20331;53.144;8.208;2023-09-30T05:00:15;102403.25;;;13.22;100.00
29163;BME280;20331;53.144;8.208;2023-09-30T05:05:38;102402.41;;;13.20;99.26
29163;BME280;20331;53.144;8.208;2023-09-30T05:11:00;102412.00;;;13.16;99.59
29163;BME280;20331;53.144;8.208;2023-09-30T05:16:22;102425.91;;;13.13;99.58
29163;BME280;20331;53.144;8.208;2023-09-30T05:21:43;102415.47;;;13.17;99.65
29163;BME280;20331;53.144;8.208;2023-09-30T05:27:06;102429.41;;;13.13;100.00
29163;BME280;20331;53.144;8.208;2023-09-30T05:32:28;102430.28;;;13.10;99.72
29163;BME280;20331;53.144;8.208;2023-09-30T05:37:49;102440.66;;;13.11;99.86
29163;BME280;20331;53.144;8.208;2023-09-30T05:43:14;102441.56;;;13.10;99.81
29163;BME280;20331;53.144;8.208;2023-09-30T05:48:36;102448.47;;;13.10;100.00
29163;BME280;20331;53.144;8.208;2023-09-30T05:54:01;102460.59;;;13.09;99.87
29163;BME280;20331;53.144;8.208;2023-09-30T05:59:23;102471.06;;;13.06;100.00
29163;BME280;20331;53.144;8.208;2023-09-30T06:04:46;102458.06;;;13.06;100.00
29163;BME280;20331;53.144;8.208;2023-09-30T06:10:08;102451.97;;;13.07;100.00
29163;BME280;20331;53.144;8.208;2023-09-30T06:15:31;102470.16;;;13.09;100.00
29163;BME280;20331;53.144;8.208;2023-09-30T06:20:53;102466.63;;;13.13;100.00
29163;BME280;20331;53.144;8.208;2023-09-30T06:26:15;102476.13;;;13.16;100.00
29163;BME280;20331;53.144;8.208;2023-09-30T06:31:38;102475.22;;;13.20;100.00
29163;BME280;20331;53.144;8.208;2023-09-30T06:37:00;102482.09;;;13.24;100.00
29163;BME280;20331;53.144;8.208;2023-09-30T06:42:22;102480.28;;;13.29;100.00
29163;BME280;20331;53.144;8.208;2023-09-30T06:47:43;102492.31;;;13.34;100.00
29163;BME280;20331;53.144;8.208;2023-09-30T06:53:07;102496.56;;;13.40;99.93
29163;BME280;20331;53.144;8.208;2023-09-30T06:58:31;102500.81;;;13.45;100.00
29163;BME280;20331;53.144;8.208;2023-09-30T07:03:52;102517.19;;;13.52;100.00
29163;BME280;20331;53.144;8.208;2023-09-30T07:09:14;102506.66;;;13.59;99.87
29163;BME280;20331;53.144;8.208;2023-09-30T07:14:36;102527.41;;;13.64;99.77
29163;BME280;20331;53.144;8.208;2023-09-30T07:19:57;102534.25;;;13.71;99.01
29163;BME280;20331;53.144;8.208;2023-09-30T07:25:19;102535.00;;;13.77;99.94
29163;BME280;20331;53.144;8.208;2023-09-30T07:30:41;102550.47;;;13.86;99.45
29163;BME280;20331;53.144;8.208;2023-09-30T07:36:03;102545.97;;;13.96;99.59
29163;BME280;20331;53.144;8.208;2023-09-30T07:41:25;102535.44;;;14.03;99.20
29163;BME280;20331;53.144;8.208;2023-09-30T07:46:46;102546.53;;;14.14;98.66
29163;BME280;20331;53.144;8.208;2023-09-30T07:52:08;102548.13;;;14.22;98.27
29163;BME280;20331;53.144;8.208;2023-09-30T07:57:30;102545.44;;;14.29;98.51
29163;BME280;20331;53.144;8.208;2023-09-30T08:02:52;102552.22;;;14.39;97.62
29163;BME280;20331;53.144;8.208;2023-09-30T08:08:14;102550.28;;;14.50;97.22
29163;BME280;20331;53.144;8.208;2023-09-30T08:13:36;102545.72;;;14.60;96.94
29163;BME280;20331;53.144;8.208;2023-09-30T08:18:58;102555.09;;;14.70;97.71
29163;BME280;20331;53.144;8.208;2023-09-30T08:24:19;102559.22;;;14.81;95.67
29163;BME280;20331;53.144;8.208;2023-09-30T08:29:41;102559.91;;;14.89;96.20
29163;BME280;20331;53.144;8.208;2023-09-30T08:35:03;102562.25;;;15.03;95.01
29163;BME280;20331;53.144;8.208;2023-09-30T08:40:25;102565.50;;;15.14;94.63
29163;BME280;20331;53.144;8.208;2023-09-30T08:45:48;102573.19;;;15.20;94.89
29163;BME280;20331;53.144;8.208;2023-09-30T08:51:13;102576.41;;;15.33;94.41
29163;BME280;20331;53.144;8.208;2023-09-30T08:56:35;102576.16;;;15.45;93.29
29163;BME280;20331;53.144;8.208;2023-09-30T09:01:58;102574.25;;;15.53;93.63
29163;BME280;20331;53.144;8.208;2023-09-30T09:07:19;102580.06;;;15.65;92.77
29163;BME280;20331;53.144;8.208;2023-09-30T09:12:41;102584.09;;;15.77;91.83
29163;BME280;20331;53.144;8.208;2023-09-30T09:18:04;102575.25;;;15.84;91.15
29163;BME280;20331;53.144;8.208;2023-09-30T09:23:26;102574.13;;;15.94;92.24
29163;BME280;20331;53.144;8.208;2023-09-30T09:28:47;102579.13;;;16.03;90.79
29163;BME280;20331;53.144;8.208;2023-09-30T09:34:13;102577.03;;;16.17;89.38
29163;BME280;20331;53.144;8.208;2023-09-30T09:39:36;102581.81;;;16.34;88.32
29163;BME280;20331;53.144;8.208;2023-09-30T09:45:03;102575.44;;;16.45;88.65
29163;BME280;20331;53.144;8.208;2023-09-30T09:50:26;102571.72;;;16.55;88.48
29163;BME280;20331;53.144;8.208;2023-09-30T09:55:50;102573.91;;;16.70;88.76
29163;BME280;20331;53.144;8.208;2023-09-30T10:01:11;102578.88;;;16.81;85.52
29163;BME280;20331;53.144;8.208;2023-09-30T10:06:34;102582.09;;;16.89;86.54
29163;BME280;20331;53.144;8.208;2023-09-30T10:12:01;102607.97;;;16.99;83.79
29163;BME280;20331;53.144;8.208;2023-09-30T10:23:20;102577.66;;;17.22;82.97
29163;BME280;20331;53.144;8.208;2023-09-30T10:28:45;102593.06;;;17.32;82.43
29163;BME280;20331;53.144;8.208;2023-09-30T10:39:58;102615.31;;;17.47;79.08
29163;BME280;20331;53.144;8.208;2023-09-30T10:56:34;102599.50;;;17.79;78.88
29163;BME280;20331;53.144;8.208;2023-09-30T11:01:56;102594.03;;;17.86;78.43
29163;BME280;20331;53.144;8.208;2023-09-30T11:07:22;102588.84;;;17.85;79.28
29163;BME280;20331;53.144;8.208;2023-09-30T11:12:58;102598.91;;;17.97;76.46
29163;BME280;20331;53.144;8.208;2023-09-30T11:18:20;102604.59;;;18.11;77.88
29163;BME280;20331;53.144;8.208;2023-09-30T11:23:43;102616.41;;;18.23;77.41
29163;BME280;20331;53.144;8.208;2023-09-30T11:29:23;102618.22;;;18.21;75.88
29163;BME280;20331;53.144;8.208;2023-09-30T11:34:44;102602.41;;;18.24;77.47
29163;BME280;20331;53.144;8.208;2023-09-30T11:40:13;102604.66;;;18.34;76.84
29163;BME280;20331;53.144;8.208;2023-09-30T11:45:35;102595.78;;;18.38;74.16
29163;BME280;20331;53.144;8.208;2023-09-30T11:50:59;102592.13;;;18.44;76.09
29163;BME280;20331;53.144;8.208;2023-09-30T11:56:23;102584.97;;;18.49;77.65
29163;BME280;20331;53.144;8.208;2023-09-30T12:01:50;102581.41;;;18.50;75.45
29163;BME280;20331;53.144;8.208;2023-09-30T12:07:27;102569.97;;;18.52;77.66
29163;BME280;20331;53.144;8.208;2023-09-30T12:12:48;102575.91;;;18.57;77.12
29163;BME280;20331;53.144;8.208;2023-09-30T12:18:10;102567.97;;;18.59;75.26
29163;BME280;20331;53.144;8.208;2023-09-30T12:23:35;102562.66;;;18.62;74.34
29163;BME280;20331;53.144;8.208;2023-09-30T12:28:56;102558.34;;;18.59;73.86
29163;BME280;20331;53.144;8.208;2023-09-30T12:34:18;102548.00;;;18.56;75.18
29163;BME280;20331;53.144;8.208;2023-09-30T12:39:40;102558.47;;;18.56;75.85
29163;BME280;20331;53.144;8.208;2023-09-30T12:45:02;102561.66;;;18.64;74.13
29163;BME280;20331;53.144;8.208;2023-09-30T12:50:26;102546.63;;;18.69;73.13
29163;BME280;20331;53.144;8.208;2023-09-30T12:55:48;102561.34;;;18.73;73.31
29163;BME280;20331;53.144;8.208;2023-09-30T13:01:10;102551.66;;;18.75;73.91
29163;BME280;20331;53.144;8.208;2023-09-30T13:06:43;102537.41;;;18.82;72.93
29163;BME280;20331;53.144;8.208;2023-09-30T13:12:05;102538.44;;;18.78;74.87
29163;BME280;20331;53.144;8.208;2023-09-30T13:17:26;102538.53;;;18.75;72.87
29163;BME280;20331;53.144;8.208;2023-09-30T13:22:48;102542.28;;;18.68;75.46
29163;BME280;20331;53.144;8.208;2023-09-30T13:28:10;102545.16;;;18.62;75.34
29163;BME280;20331;53.144;8.208;2023-09-30T13:33:31;102533.94;;;18.57;74.84
29163;BME280;20331;53.144;8.208;2023-09-30T13:38:53;102526.56;;;18.68;75.41
29163;BME280;20331;53.144;8.208;2023-09-30T13:44:14;102528.28;;;18.69;74.74
29163;BME280;20331;53.144;8.208;2023-09-30T13:49:37;102528.22;;;18.71;76.08
29163;BME280;20331;53.144;8.208;2023-09-30T13:54:58;102508.03;;;18.73;76.34
29163;BME280;20331;53.144;8.208;2023-09-30T14:00:20;102535.22;;;18.70;73.78
29163;BME280;20331;53.144;8.208;2023-09-30T14:05:43;102505.56;;;18.68;73.27
29163;BME280;20331;53.144;8.208;2023-09-30T14:11:06;102503.88;;;18.67;75.31
29163;BME280;20331;53.144;8.208;2023-09-30T14:16:29;102490.63;;;18.70;75.27
29163;BME280;20331;53.144;8.208;2023-09-30T14:21:51;102487.66;;;18.79;73.21
29163;BME280;20331;53.144;8.208;2023-09-30T14:27:13;102477.56;;;18.92;72.62
29163;BME280;20331;53.144;8.208;2023-09-30T14:32:36;102480.19;;;18.92;74.61
29163;BME280;20331;53.144;8.208;2023-09-30T14:37:59;102488.78;;;18.95;73.76
29163;BME280;20331;53.144;8.208;2023-09-30T14:43:20;102455.47;;;18.97;73.19
29163;BME280;20331;53.144;8.208;2023-09-30T14:48:42;102454.53;;;19.00;75.12
29163;BME280;20331;53.144;8.208;2023-09-30T14:54:05;102463.78;;;19.08;75.33
29163;BME280;20331;53.144;8.208;2023-09-30T14:59:27;102476.81;;;19.12;73.17
29163;BME280;20331;53.144;8.208;2023-09-30T15:04:49;102480.28;;;19.12;72.36
29163;BME280;20331;53.144;8.208;2023-09-30T15:10:11;102477.94;;;19.04;73.66
29163;BME280;20331;53.144;8.208;2023-09-30T15:15:36;102475.63;;;18.97;72.40
29163;BME280;20331;53.144;8.208;2023-09-30T15:20:58;102469.66;;;18.93;74.41
29163;BME280;20331;53.144;8.208;2023-09-30T15:26:22;102454.13;;;18.87;73.58
29163;BME280;20331;53.144;8.208;2023-09-30T15:31:43;102452.69;;;18.79;73.35
29163;BME280;20331;53.144;8.208;2023-09-30T15:37:06;102458.06;;;18.76;73.85
29163;BME280;20331;53.144;8.208;2023-09-30T15:42:28;102452.16;;;18.71;73.88
29163;BME280;20331;53.144;8.208;2023-09-30T15:47:50;102453.97;;;18.69;74.94
29163;BME280;20331;53.144;8.208;2023-09-30T15:53:14;102446.03;;;18.70;75.26
29163;BME280;20331;53.144;8.208;2023-09-30T15:58:36;102446.97;;;18.69;76.28
29163;BME280;20331;53.144;8.208;2023-09-30T16:03:57;102448.72;;;18.69;75.55
29163;BME280;20331;53.144;8.208;2023-09-30T16:09:20;102463.00;;;18.62;73.86
29163;BME280;20331;53.144;8.208;2023-09-30T16:14:41;102467.59;;;18.55;75.02
29163;BME280;20331;53.144;8.208;2023-09-30T16:20:03;102466.09;;;18.48;76.25
29163;BME280;20331;53.144;8.208;2023-09-30T16:25:30;102461.28;;;18.36;76.94
29163;BME280;20331;53.144;8.208;2023-09-30T16:30:51;102460.69;;;18.28;77.49
29163;BME280;20331;53.144;8.208;2023-09-30T16:36:13;102453.03;;;18.22;78.38
29163;BME280;20331;53.144;8.208;2023-09-30T16:41:36;102460.34;;;18.14;77.52
29163;BME280;20331;53.144;8.208;2023-09-30T16:46:59;102459.66;;;18.09;78.56
29163;BME280;20331;53.144;8.208;2023-09-30T16:52:21;102462.47;;;18.03;78.64
29163;BME280;20331;53.144;8.208;2023-09-30T16:57:44;102467.78;;;18.01;79.23
29163;BME280;20331;53.144;8.208;2023-09-30T17:03:06;102474.97;;;17.95;79.61
29163;BME280;20331;53.144;8.208;2023-09-30T17:08:28;102473.34;;;17.91;79.16
29163;BME280;20331;53.144;8.208;2023-09-30T17:13:50;102483.19;;;17.84;79.93
29163;BME280;20331;53.144;8.208;2023-09-30T17:19:11;102491.25;;;17.78;80.72
29163;BME280;20331;53.144;8.208;2023-09-30T17:24:33;102480.94;;;17.74;81.57
29163;BME280;20331;53.144;8.208;2023-09-30T17:29:54;102480.28;;;17.67;82.13
29163;BME280;20331;53.144;8.208;2023-09-30T17:35:17;102473.34;;;17.66;82.36
29163;BME280;20331;53.144;8.208;2023-09-30T17:40:39;102469.03;;;17.64;81.21
29163;BME280;20331;53.144;8.208;2023-09-30T17:46:11;102489.09;;;17.65;82.15
29163;BME280;20331;53.144;8.208;2023-09-30T17:51:33;102481.31;;;17.62;83.30
29163;BME280;20331;53.144;8.208;2023-09-30T17:56:55;102481.56;;;17.56;82.94
29163;BME280;20331;53.144;8.208;2023-09-30T18:02:17;102473.75;;;17.54;83.47
29163;BME280;20331;53.144;8.208;2023-09-30T18:07:38;102478.31;;;17.48;83.73
29163;BME280;20331;53.144;8.208;2023-09-30T18:13:00;102481.00;;;17.45;84.49
29163;BME280;20331;53.144;8.208;2023-09-30T18:18:23;102475.03;;;17.40;84.74
29163;BME280;20331;53.144;8.208;2023-09-30T18:23:45;102491.72;;;17.37;85.60
29163;BME280;20331;53.144;8.208;2023-09-30T18:29:07;102489.22;;;17.33;86.10
29163;BME280;20331;53.144;8.208;2023-09-30T18:34:29;102495.50;;;17.27;86.42
29163;BME280;20331;53.144;8.208;2023-09-30T18:39:52;102488.75;;;17.20;86.14
29163;BME280;20331;53.144;8.208;2023-09-30T18:45:13;102492.19;;;17.22;86.06
29163;BME280;20331;53.144;8.208;2023-09-30T18:50:49;102494.91;;;17.19;85.04
29163;BME280;20331;53.144;8.208;2023-09-30T18:56:19;102495.03;;;17.15;84.84
29163;BME280;20331;53.144;8.208;2023-09-30T19:01:41;102484.75;;;17.08;86.02
29163;BME280;20331;53.144;8.208;2023-09-30T19:07:03;102478.72;;;17.06;86.58
29163;BME280;20331;53.144;8.208;2023-09-30T19:12:24;102478.72;;;17.06;86.32
29163;BME280;20331;53.144;8.208;2023-09-30T19:17:46;102472.69;;;17.04;86.58
29163;BME280;20331;53.144;8.208;2023-09-30T19:23:08;102475.38;;;17.01;86.58
29163;BME280;20331;53.144;8.208;2023-09-30T19:28:30;102463.16;;;17.02;87.23
29163;BME280;20331;53.144;8.208;2023-09-30T19:33:53;102464.97;;;17.00;87.26
29163;BME280;20331;53.144;8.208;2023-09-30T19:39:15;102463.25;;;16.99;87.39
29163;BME280;20331;53.144;8.208;2023-09-30T19:44:36;102464.97;;;17.00;87.24
29163;BME280;20331;53.144;8.208;2023-09-30T19:50:00;102464.09;;;16.99;87.65
29163;BME280;20331;53.144;8.208;2023-09-30T19:55:22;102469.31;;;16.99;86.74
29163;BME280;20331;53.144;8.208;2023-09-30T20:00:43;102464.97;;;17.00;87.29
29163;BME280;20331;53.144;8.208;2023-09-30T20:06:18;102467.63;;;16.98;87.60
29163;BME280;20331;53.144;8.208;2023-09-30T20:11:40;102453.84;;;16.93;85.18
29163;BME280;20331;53.144;8.208;2023-09-30T20:17:02;102453.91;;;16.90;87.17
29163;BME280;20331;53.144;8.208;2023-09-30T20:22:24;102466.97;;;16.92;87.39
29163;BME280;20331;53.144;8.208;2023-09-30T20:27:46;102456.41;;;16.95;86.76
29163;BME280;20331;53.144;8.208;2023-09-30T20:33:08;102457.28;;;16.95;87.62
29163;BME280;20331;53.144;8.208;2023-09-30T20:38:30;102456.28;;;16.98;86.13
29163;BME280;20331;53.144;8.208;2023-09-30T20:43:51;102452.84;;;16.97;86.01
29163;BME280;20331;53.144;8.208;2023-09-30T20:49:13;102443.28;;;16.96;86.37
29163;BME280;20331;53.144;8.208;2023-09-30T20:54:35;102450.41;;;16.91;85.73
29163;BME280;20331;53.144;8.208;2023-09-30T20:59:56;102440.88;;;16.89;85.85
29163;BME280;20331;53.144;8.208;2023-09-30T21:05:18;102428.72;;;16.88;86.06
29163;BME280;20331;53.144;8.208;2023-09-30T21:10:41;102432.28;;;16.85;86.43
29163;BME280;20331;53.144;8.208;2023-09-30T21:16:04;102434.06;;;16.83;86.17
29163;BME280;20331;53.144;8.208;2023-09-30T21:21:26;102422.81;;;16.81;86.65
29163;BME280;20331;53.144;8.208;2023-09-30T21:26:47;102415.97;;;16.77;86.56
29163;BME280;20331;53.144;8.208;2023-09-30T21:32:09;102423.78;;;16.79;87.05
29163;BME280;20331;53.144;8.208;2023-09-30T21:37:32;102415.97;;;16.77;87.22
29163;BME280;20331;53.144;8.208;2023-09-30T21:42:55;102423.00;;;16.75;87.38
29163;BME280;20331;53.144;8.208;2023-09-30T21:48:17;102430.81;;;16.77;87.20
29163;BME280;20331;53.144;8.208;2023-09-30T21:53:39;102447.34;;;16.77;86.23
29163;BME280;20331;53.144;8.208;2023-09-30T21:59:01;102433.38;;;16.78;86.08
29163;BME280;20331;53.144;8.208;2023-09-30T22:04:22;102420.34;;;16.77;86.76
29163;BME280;20331;53.144;8.208;2023-09-30T22:09:44;102420.41;;;16.75;85.76
29163;BME280;20331;53.144;8.208;2023-09-30T22:15:07;102409.88;;;16.77;86.54
29163;BME280;20331;53.144;8.208;2023-09-30T22:20:29;102419.47;;;16.76;86.33
29163;BME280;20331;53.144;8.208;2023-09-30T22:25:51;102427.38;;;16.75;85.76
29163;BME280;20331;53.144;8.208;2023-09-30T22:31:12;102413.53;;;16.71;86.79
29163;BME280;20331;53.144;8.208;2023-09-30T22:36:36;102425.00;;;16.67;86.19
29163;BME280;20331;53.144;8.208;2023-09-30T22:42:07;102418.06;;;16.66;86.35
29163;BME280;20331;53.144;8.208;2023-09-30T22:47:41;102407.66;;;16.63;87.04
29163;BME280;20331;53.144;8.208;2023-09-30T22:53:03;102405.97;;;16.62;87.41
29163;BME280;20331;53.144;8.208;2023-09-30T22:58:25;102408.66;;;16.59;87.01
29163;BME280;20331;53.144;8.208;2023-09-30T23:03:50;102402.44;;;16.63;86.86
29163;BME280;20331;53.144;8.208;2023-09-30T23:09:14;102405.16;;;16.60;87.19
29163;BME280;20331;53.144;8.208;2023-09-30T23:14:39;102392.09;;;16.60;88.23
29163;BME280;20331;53.144;8.208;2023-09-30T23:20:01;102407.94;;;16.54;87.34
29163;BME280;20331;53.144;8.208;2023-09-30T23:25:26;102408.19;;;16.45;87.87
29163;BME280;20331;53.144;8.208;2023-09-30T23:30:48;102401.19;;;16.47;88.42
29163;BME280;20331;53.144;8.208;2023-09-30T23:36:11;102399.38;;;16.49;88.35
29163;BME280;20331;53.144;8.208;2023-09-30T23:41:33;102382.91;;;16.47;88.53
29163;BME280;20331;53.144;8.208;2023-09-30T23:46:54;102389.88;;;16.45;88.03
29163;BME280;20331;53.144;8.208;2023-09-30T23:52:18;102364.66;;;16.44;88.70
29163;BME280;20331;53.144;8.208;2023-09-30T23:57:41;102363.03;;;16.40;89.14
